Terminal Aerodrome Forecast
Issued by NWS

Home | Current Version | Previous Version | Text Only | Print | Product List | Glossary On
Versions: 1 2 3 4 5 6 7 8 9 10 11 12 13 14 15 16 17 18 19
000
FTUS46 KSEW 311720
TAFHQM
TAF
KHQM 311720Z 3118/0118 19005KT 6SM HZ SKC
     FM312000 27012KT P6SM SKC
     FM010600 24007KT 1SM BR OVC004
      TEMPO 0111/0115 1/4SM FG OVC002
     FM011700 27006KT 6SM HZ SCT005=

USA.gov is the U.S. government's official web portal to all federal, state and local government web resources and services.